Atwater, Minnesota
Current Conditions -  °F | °C
As of 3:33 PM on Saturday 20 Dec 2014 (Local Time) from KLJF Reporting Station
Unknown Precip Unknown Precip  
Wind Chill: 24°   Ceiling: 1000
Heat Index: 30°   Visibility: 10mi
Dew Point: 30°   Wind: 6mph
Humidity: 100%   Direction: 150°SSE
Pressure: 30.07"   Gusts: NA
Location:  45.14°N, 94.78°W
Report Text: KLJF 202133Z AUTO 15005KT 10SM UP OVC010 M01/M01 A3007 RMK AO2
Loading
Personal Weather Stations






























Interactive Weather Map New forecast layout! Learn more

10-Day Weather Forecast

Advertisements
Track Severe Weather on mobile